sensor_id;sensor_type;location;lat;lon;timestamp;temperature;humidity
26049;DHT22;13822;51.568;5.086;2022-11-15T00:10:36;8.10;99.90
26049;DHT22;13822;51.568;5.086;2022-11-15T00:23:33;8.20;99.90
26049;DHT22;13822;51.568;5.086;2022-11-15T00:49:51;8.50;99.90
26049;DHT22;13822;51.568;5.086;2022-11-15T01:02:53;8.60;99.90
26049;DHT22;13822;51.568;5.086;2022-11-15T01:34:34;9.10;99.90
26049;DHT22;13822;51.568;5.086;2022-11-15T01:54:43;9.40;99.90
26049;DHT22;13822;51.568;5.086;2022-11-15T03:24:50;10.80;99.90
26049;DHT22;13822;51.568;5.086;2022-11-15T06:01:39;11.20;99.90
26049;DHT22;13822;51.568;5.086;2022-11-15T06:06:41;11.20;99.90
26049;DHT22;13822;51.568;5.086;2022-11-15T06:11:43;11.30;99.90
26049;DHT22;13822;51.568;5.086;2022-11-15T06:16:45;11.30;99.90
26049;DHT22;13822;51.568;5.086;2022-11-15T06:21:47;11.20;99.90
26049;DHT22;13822;51.568;5.086;2022-11-15T06:26:48;11.30;99.90
26049;DHT22;13822;51.568;5.086;2022-11-15T06:31:50;11.30;99.90
26049;DHT22;13822;51.568;5.086;2022-11-15T06:36:52;11.20;99.90
26049;DHT22;13822;51.568;5.086;2022-11-15T06:41:54;11.20;99.90
26049;DHT22;13822;51.568;5.086;2022-11-15T06:46:56;11.20;99.90
26049;DHT22;13822;51.568;5.086;2022-11-15T06:51:58;11.20;99.90
26049;DHT22;13822;51.568;5.086;2022-11-15T06:57:03;11.20;99.90
26049;DHT22;13822;51.568;5.086;2022-11-15T07:02:05;11.10;99.90
26049;DHT22;13822;51.568;5.086;2022-11-15T07:07:07;11.10;99.90
26049;DHT22;13822;51.568;5.086;2022-11-15T07:12:09;11.10;99.90
26049;DHT22;13822;51.568;5.086;2022-11-15T07:17:11;11.10;99.90
26049;DHT22;13822;51.568;5.086;2022-11-15T07:22:13;11.00;99.90
26049;DHT22;13822;51.568;5.086;2022-11-15T07:27:15;11.00;99.90
26049;DHT22;13822;51.568;5.086;2022-11-15T07:32:17;11.00;99.90
26049;DHT22;13822;51.568;5.086;2022-11-15T07:37:18;10.90;99.90
26049;DHT22;13822;51.568;5.086;2022-11-15T07:42:23;10.90;99.90
26049;DHT22;13822;51.568;5.086;2022-11-15T07:47:49;11.00;99.90
26049;DHT22;13822;51.568;5.086;2022-11-15T07:52:54;10.90;99.90
26049;DHT22;13822;51.568;5.086;2022-11-15T07:58:09;10.90;99.90
26049;DHT22;13822;51.568;5.086;2022-11-15T08:03:13;10.90;99.90
26049;DHT22;13822;51.568;5.086;2022-11-15T08:08:16;10.90;99.90
26049;DHT22;13822;51.568;5.086;2022-11-15T08:13:18;10.90;99.90
26049;DHT22;13822;51.568;5.086;2022-11-15T08:18:20;10.90;99.90
26049;DHT22;13822;51.568;5.086;2022-11-15T08:23:22;10.90;99.90
26049;DHT22;13822;51.568;5.086;2022-11-15T08:28:24;10.90;99.90
26049;DHT22;13822;51.568;5.086;2022-11-15T08:33:26;10.90;99.90
26049;DHT22;13822;51.568;5.086;2022-11-15T08:38:29;10.90;99.90
26049;DHT22;13822;51.568;5.086;2022-11-15T08:43:32;10.90;99.90
26049;DHT22;13822;51.568;5.086;2022-11-15T08:48:35;10.90;99.90
26049;DHT22;13822;51.568;5.086;2022-11-15T08:53:37;10.90;99.90
26049;DHT22;13822;51.568;5.086;2022-11-15T08:58:39;10.90;99.90
26049;DHT22;13822;51.568;5.086;2022-11-15T09:03:41;10.90;99.90
26049;DHT22;13822;51.568;5.086;2022-11-15T09:08:43;11.00;99.90
26049;DHT22;13822;51.568;5.086;2022-11-15T09:13:53;11.00;99.90
26049;DHT22;13822;51.568;5.086;2022-11-15T09:18:55;11.00;99.90
26049;DHT22;13822;51.568;5.086;2022-11-15T09:23:57;11.00;99.90
26049;DHT22;13822;51.568;5.086;2022-11-15T09:28:59;11.00;99.90
26049;DHT22;13822;51.568;5.086;2022-11-15T09:34:02;11.00;99.90
26049;DHT22;13822;51.568;5.086;2022-11-15T09:39:04;11.00;99.90
26049;DHT22;13822;51.568;5.086;2022-11-15T09:49:26;11.00;99.90
26049;DHT22;13822;51.568;5.086;2022-11-15T09:54:36;11.00;99.90
26049;DHT22;13822;51.568;5.086;2022-11-15T10:00:02;11.10;99.90
26049;DHT22;13822;51.568;5.086;2022-11-15T10:05:25;11.10;99.90
26049;DHT22;13822;51.568;5.086;2022-11-15T10:15:35;11.10;99.90
26049;DHT22;13822;51.568;5.086;2022-11-15T10:20:57;11.10;99.90
26049;DHT22;13822;51.568;5.086;2022-11-15T10:26:00;11.20;99.90
26049;DHT22;13822;51.568;5.086;2022-11-15T10:31:23;11.20;99.90
26049;DHT22;13822;51.568;5.086;2022-11-15T10:36:27;11.20;99.90
26049;DHT22;13822;51.568;5.086;2022-11-15T10:41:31;11.20;99.90
26049;DHT22;13822;51.568;5.086;2022-11-15T10:46:37;11.20;99.90
26049;DHT22;13822;51.568;5.086;2022-11-15T10:51:48;11.20;99.90
26049;DHT22;13822;51.568;5.086;2022-11-15T10:56:53;11.30;99.90
26049;DHT22;13822;51.568;5.086;2022-11-15T11:01:56;11.30;99.90
26049;DHT22;13822;51.568;5.086;2022-11-15T11:06:59;11.40;99.90
26049;DHT22;13822;51.568;5.086;2022-11-15T11:12:02;11.40;99.90
26049;DHT22;13822;51.568;5.086;2022-11-15T11:43:45;11.90;99.90
26049;DHT22;13822;51.568;5.086;2022-11-15T11:48:57;11.90;99.90
26049;DHT22;13822;51.568;5.086;2022-11-15T12:04:36;12.10;99.90
26049;DHT22;13822;51.568;5.086;2022-11-15T12:09:47;12.20;99.90
26049;DHT22;13822;51.568;5.086;2022-11-15T12:20:13;12.40;99.90
26049;DHT22;13822;51.568;5.086;2022-11-15T12:30:19;12.60;99.90
26049;DHT22;13822;51.568;5.086;2022-11-15T12:40:38;12.60;99.90
26049;DHT22;13822;51.568;5.086;2022-11-15T12:45:42;12.60;99.90
26049;DHT22;13822;51.568;5.086;2022-11-15T13:06:38;12.60;99.90
26049;DHT22;13822;51.568;5.086;2022-11-15T13:11:46;12.60;99.90
26049;DHT22;13822;51.568;5.086;2022-11-15T13:16:49;12.60;99.90
26049;DHT22;13822;51.568;5.086;2022-11-15T13:21:59;12.70;99.90
26049;DHT22;13822;51.568;5.086;2022-11-15T13:27:46;12.70;99.90
26049;DHT22;13822;51.568;5.086;2022-11-15T13:32:49;12.70;99.90
26049;DHT22;13822;51.568;5.086;2022-11-15T13:37:53;12.70;99.90
26049;DHT22;13822;51.568;5.086;2022-11-15T13:42:57;12.60;99.90
26049;DHT22;13822;51.568;5.086;2022-11-15T13:47:59;12.70;99.90
26049;DHT22;13822;51.568;5.086;2022-11-15T13:53:04;12.70;99.90
26049;DHT22;13822;51.568;5.086;2022-11-15T13:58:08;12.70;99.90
26049;DHT22;13822;51.568;5.086;2022-11-15T14:08:26;12.70;99.90
26049;DHT22;13822;51.568;5.086;2022-11-15T14:13:30;12.70;99.90
26049;DHT22;13822;51.568;5.086;2022-11-15T14:18:42;12.70;99.90
26049;DHT22;13822;51.568;5.086;2022-11-15T14:23:46;12.70;99.90
26049;DHT22;13822;51.568;5.086;2022-11-15T14:28:50;12.70;99.90
26049;DHT22;13822;51.568;5.086;2022-11-15T14:33:52;12.70;99.90
26049;DHT22;13822;51.568;5.086;2022-11-15T14:38:54;12.70;99.90
26049;DHT22;13822;51.568;5.086;2022-11-15T14:43:56;12.70;99.90
26049;DHT22;13822;51.568;5.086;2022-11-15T14:48:58;12.60;99.90
26049;DHT22;13822;51.568;5.086;2022-11-15T14:54:00;12.60;99.90
26049;DHT22;13822;51.568;5.086;2022-11-15T14:59:02;12.60;99.90
26049;DHT22;13822;51.568;5.086;2022-11-15T15:04:03;12.50;99.90
26049;DHT22;13822;51.568;5.086;2022-11-15T15:09:05;12.60;99.90
26049;DHT22;13822;51.568;5.086;2022-11-15T15:14:07;12.50;99.90
26049;DHT22;13822;51.568;5.086;2022-11-15T15:19:10;12.50;99.90
26049;DHT22;13822;51.568;5.086;2022-11-15T15:24:15;12.50;99.90
26049;DHT22;13822;51.568;5.086;2022-11-15T15:29:17;12.50;99.90
26049;DHT22;13822;51.568;5.086;2022-11-15T15:34:19;12.40;99.90
26049;DHT22;13822;51.568;5.086;2022-11-15T15:39:20;12.40;99.90
26049;DHT22;13822;51.568;5.086;2022-11-15T15:44:22;12.40;99.90
26049;DHT22;13822;51.568;5.086;2022-11-15T15:49:24;12.40;99.90
26049;DHT22;13822;51.568;5.086;2022-11-15T15:54:26;12.40;99.90
26049;DHT22;13822;51.568;5.086;2022-11-15T15:59:28;12.40;99.90
26049;DHT22;13822;51.568;5.086;2022-11-15T16:04:30;12.50;99.90
26049;DHT22;13822;51.568;5.086;2022-11-15T16:09:32;12.50;99.90
26049;DHT22;13822;51.568;5.086;2022-11-15T16:14:52;12.40;99.90
26049;DHT22;13822;51.568;5.086;2022-11-15T16:19:54;12.40;99.90
26049;DHT22;13822;51.568;5.086;2022-11-15T16:24:56;12.40;99.90
26049;DHT22;13822;51.568;5.086;2022-11-15T16:29:58;12.30;99.90
26049;DHT22;13822;51.568;5.086;2022-11-15T16:35:00;12.30;99.90
26049;DHT22;13822;51.568;5.086;2022-11-15T16:40:02;12.30;99.90
26049;DHT22;13822;51.568;5.086;2022-11-15T16:45:04;12.20;99.90
26049;DHT22;13822;51.568;5.086;2022-11-15T16:50:11;12.10;99.90
26049;DHT22;13822;51.568;5.086;2022-11-15T16:55:19;12.00;99.90
26049;DHT22;13822;51.568;5.086;2022-11-15T17:00:22;12.00;99.90
26049;DHT22;13822;51.568;5.086;2022-11-15T17:05:28;11.90;99.90
26049;DHT22;13822;51.568;5.086;2022-11-15T17:10:30;11.80;99.90
26049;DHT22;13822;51.568;5.086;2022-11-15T17:15:32;11.80;99.90
26049;DHT22;13822;51.568;5.086;2022-11-15T17:20:38;11.70;99.90
26049;DHT22;13822;51.568;5.086;2022-11-15T18:05:26;11.40;99.90
